Time;durP1;ratioP1;P1;durP2;ratioP2;P2;SDS_P1;SDS_P2;PMS_P1;PMS_P2;Temp;Humidity;BMP_temperature;BMP_pressure;BME280_temperature;BME280_humidity;BME280_pressure;Samples;Min_cycle;Max_cycle;Signal;HPM_P1;HPM_P2
2023/01/08 00:00:29;;;;;;;2.20;0.60;;;23.00;99.90;;;;;;5072098;28;20275;-80
2023/01/08 00:03:02;;;;;;;1.95;0.70;;;22.80;99.90;;;;;;5071272;28;20203;-80
2023/01/08 00:05:33;;;;;;;4.57;0.77;;;22.70;99.90;;;;;;5072634;28;20275;-79
2023/01/08 00:08:03;;;;;;;3.05;0.77;;;22.80;99.90;;;;;;5067846;28;20288;-79
2023/01/08 00:10:34;;;;;;;1.95;0.70;;;22.80;99.90;;;;;;5073355;28;20283;-81
2023/01/08 00:13:05;;;;;;;0.82;0.60;;;22.80;99.90;;;;;;5067118;28;20196;-80
2023/01/08 00:15:37;;;;;;;3.33;0.65;;;22.70;99.90;;;;;;5072934;28;20229;-81
2023/01/08 00:18:09;;;;;;;5.35;0.70;;;22.80;99.90;;;;;;5070760;28;20228;-79
2023/01/08 00:20:44;;;;;;;2.45;0.55;;;23.20;99.90;;;;;;5071990;28;20667;-82
2023/01/08 00:23:15;;;;;;;4.32;0.70;;;23.60;99.90;;;;;;5072816;28;20280;-80
2023/01/08 00:25:46;;;;;;;3.72;0.73;;;23.80;99.90;;;;;;5069734;28;20192;-81
2023/01/08 00:28:17;;;;;;;2.25;0.60;;;24.10;99.90;;;;;;5072558;28;20580;-77
2023/01/08 00:30:48;;;;;;;1.73;0.60;;;24.30;99.90;;;;;;5069815;28;20276;-80
2023/01/08 00:33:20;;;;;;;1.00;0.68;;;24.20;99.90;;;;;;5072916;28;20192;-81
2023/01/08 00:35:51;;;;;;;4.18;0.65;;;24.40;99.90;;;;;;5070330;28;20629;-80
2023/01/08 00:38:26;;;;;;;2.28;0.43;;;24.40;99.90;;;;;;5052605;28;20276;-80
2023/01/08 00:40:58;;;;;;;1.90;0.70;;;24.30;99.90;;;;;;5052167;28;20267;-78
2023/01/08 00:43:31;;;;;;;3.90;0.60;;;24.40;99.90;;;;;;5066452;28;20205;-79
2023/01/08 00:46:02;;;;;;;2.85;0.63;;;24.50;99.90;;;;;;5067760;28;20663;-80
2023/01/08 00:48:37;;;;;;;1.98;0.50;;;24.50;99.90;;;;;;5062226;28;20319;-77
2023/01/08 00:51:09;;;;;;;5.28;0.85;;;24.50;99.90;;;;;;5070193;28;20189;-80
2023/01/08 00:53:40;;;;;;;3.17;0.65;;;24.80;99.90;;;;;;5061994;28;20237;-79
2023/01/08 00:56:12;;;;;;;3.60;0.80;;;24.90;99.90;;;;;;5070067;28;20299;-78
2023/01/08 00:58:42;;;;;;;3.53;0.80;;;24.80;99.90;;;;;;5056207;28;20210;-77
2023/01/08 01:01:16;;;;;;;3.83;0.65;;;24.60;99.90;;;;;;5065535;28;20219;-79
2023/01/08 01:03:49;;;;;;;1.75;0.50;;;24.30;99.90;;;;;;5064140;28;20578;-79
2023/01/08 01:06:20;;;;;;;3.47;0.68;;;24.20;99.90;;;;;;5067288;28;20230;-80
2023/01/08 01:08:51;;;;;;;3.90;0.80;;;24.30;99.90;;;;;;5067564;28;20206;-80
2023/01/08 01:11:23;;;;;;;2.38;0.75;;;24.40;99.90;;;;;;5063215;28;20296;-81
2023/01/08 01:13:55;;;;;;;3.03;0.60;;;24.40;99.90;;;;;;5069494;28;20566;-79
2023/01/08 01:16:27;;;;;;;4.35;0.80;;;24.10;99.90;;;;;;5068601;28;20709;-81
2023/01/08 01:19:02;;;;;;;4.15;0.70;;;23.90;99.90;;;;;;5073848;28;20216;-76
2023/01/08 01:21:34;;;;;;;3.47;0.80;;;23.70;99.90;;;;;;5066050;28;20566;-79
2023/01/08 01:24:07;;;;;;;3.90;0.80;;;23.70;99.90;;;;;;5068240;28;20283;-85
2023/01/08 01:26:37;;;;;;;3.35;0.75;;;24.00;99.90;;;;;;5073253;28;20574;-81
2023/01/08 01:29:08;;;;;;;2.67;0.82;;;24.30;99.90;;;;;;5069773;28;20640;-79
2023/01/08 01:31:39;;;;;;;1.20;0.60;;;24.40;99.90;;;;;;5063598;28;20203;-85
2023/01/08 01:34:12;;;;;;;4.75;0.82;;;24.70;99.90;;;;;;5072160;28;20229;-83
2023/01/08 01:36:43;;;;;;;4.13;0.82;;;24.80;99.90;;;;;;5071864;28;20279;-80
2023/01/08 01:39:14;;;;;;;3.72;0.98;;;24.80;99.90;;;;;;5071579;28;20220;-81
2023/01/08 01:41:46;;;;;;;3.38;0.73;;;24.60;99.90;;;;;;5069615;28;20201;-81
2023/01/08 01:44:39;;;;;;;3.45;0.75;;;24.50;99.90;;;;;;5073464;28;20308;-86
2023/01/08 01:47:17;;;;;;;2.92;0.80;;;24.50;99.90;;;;;;5069040;28;20279;-86
2023/01/08 01:49:57;;;;;;;5.78;0.77;;;24.60;99.90;;;;;;5053740;22;20241;-82
2023/01/08 01:52:32;;;;;;;3.08;0.70;;;24.70;99.90;;;;;;5046837;28;20193;-84
2023/01/08 01:55:05;;;;;;;2.90;0.95;;;24.60;99.90;;;;;;5053806;28;20285;-82
2023/01/08 01:57:36;;;;;;;1.75;0.70;;;24.60;99.90;;;;;;5048791;28;20280;-82
2023/01/08 02:00:09;;;;;;;5.13;0.90;;;24.70;99.90;;;;;;5050650;28;20225;-81
2023/01/08 02:02:40;;;;;;;2.80;0.90;;;24.80;99.90;;;;;;5046945;28;20193;-82
2023/01/08 02:05:12;;;;;;;3.28;0.90;;;24.90;99.90;;;;;;5055149;28;20304;-81
2023/01/08 02:08:03;;;;;;;2.53;0.73;;;25.00;99.90;;;;;;5054062;28;20666;-86
2023/01/08 02:10:40;;;;;;;4.65;1.02;;;25.00;99.90;;;;;;5051806;28;20200;-85
2023/01/08 02:13:15;;;;;;;3.28;0.70;;;25.00;99.90;;;;;;5053958;28;20201;-84
2023/01/08 02:15:53;;;;;;;4.45;1.00;;;25.10;99.90;;;;;;5048864;28;20294;-79
2023/01/08 02:18:29;;;;;;;4.07;0.90;;;25.00;99.90;;;;;;5049553;28;20193;-83
2023/01/08 02:21:06;;;;;;;6.15;0.85;;;25.00;99.90;;;;;;5051627;28;20649;-83
2023/01/08 02:23:47;;;;;;;1.65;0.80;;;25.00;99.90;;;;;;5052487;28;20276;-88
2023/01/08 02:26:25;;;;;;;4.82;0.93;;;24.90;99.90;;;;;;5051263;28;20618;-82
2023/01/08 02:29:00;;;;;;;4.05;1.10;;;24.70;99.90;;;;;;5034839;28;20204;-83
2023/01/08 02:31:33;;;;;;;4.97;1.10;;;24.60;99.90;;;;;;5037837;28;20204;-80
2023/01/08 02:34:04;;;;;;;3.55;1.02;;;24.50;99.90;;;;;;5052416;28;20236;-83
2023/01/08 02:36:53;;;;;;;5.10;1.00;;;24.60;99.90;;;;;;5053771;28;20293;-78
2023/01/08 02:39:49;;;;;;;3.60;0.82;;;24.70;99.90;;;;;;5032090;28;20222;-81
2023/01/08 02:42:32;;;;;;;3.47;1.10;;;24.50;99.90;;;;;;5032630;28;20202;-80
2023/01/08 02:45:09;;;;;;;3.65;0.85;;;24.40;99.90;;;;;;5034293;28;20276;-85
2023/01/08 02:47:44;;;;;;;5.53;1.20;;;24.60;99.90;;;;;;5051474;28;20567;-88
2023/01/08 02:50:23;;;;;;;3.90;1.23;;;24.70;99.90;;;;;;5051026;28;20219;-84
2023/01/08 02:53:01;;;;;;;3.70;1.00;;;25.00;99.90;;;;;;5053214;28;20637;-85
2023/01/08 02:55:35;;;;;;;4.72;1.10;;;25.00;99.90;;;;;;5046208;28;20324;-83
2023/01/08 02:58:12;;;;;;;2.13;0.98;;;24.80;99.90;;;;;;5051373;28;20198;-88
2023/01/08 03:00:45;;;;;;;3.60;1.20;;;24.90;99.90;;;;;;5047816;28;20220;-82
2023/01/08 03:03:20;;;;;;;3.97;1.00;;;24.80;99.90;;;;;;5050654;28;20755;-80
2023/01/08 03:05:53;;;;;;;2.88;0.98;;;24.70;99.90;;;;;;5051727;28;20192;-84
2023/01/08 03:08:24;;;;;;;4.35;0.85;;;24.70;99.90;;;;;;5051479;28;20827;-82
2023/01/08 03:10:59;;;;;;;2.67;0.90;;;24.50;99.90;;;;;;5050437;28;20675;-82
2023/01/08 03:13:39;;;;;;;3.80;0.90;;;24.60;99.90;;;;;;5049332;28;20201;-82
2023/01/08 03:16:13;;;;;;;3.15;0.80;;;24.70;99.90;;;;;;5043338;28;21504;-85
2023/01/08 03:18:49;;;;;;;5.28;1.20;;;24.80;99.90;;;;;;5047429;28;20274;-83
2023/01/08 03:21:23;;;;;;;3.72;0.80;;;24.90;99.90;;;;;;5046307;28;20223;-81
2023/01/08 03:23:54;;;;;;;5.53;0.90;;;24.80;99.90;;;;;;5038935;28;20198;-83
2023/01/08 03:26:28;;;;;;;3.30;1.02;;;24.70;99.90;;;;;;5052775;28;20288;-87
2023/01/08 03:29:01;;;;;;;5.03;0.90;;;24.70;99.90;;;;;;5049550;28;20301;-87
2023/01/08 03:31:33;;;;;;;3.33;0.90;;;24.70;99.90;;;;;;5052009;28;20720;-83
2023/01/08 03:34:07;;;;;;;4.43;1.00;;;24.60;99.90;;;;;;5053539;28;20269;-81
2023/01/08 03:36:40;;;;;;;4.95;1.20;;;24.40;99.90;;;;;;5051015;28;20193;-81
2023/01/08 03:39:16;;;;;;;2.88;1.05;;;24.40;99.90;;;;;;5053190;28;20281;-90
2023/01/08 03:41:47;;;;;;;5.38;1.10;;;24.30;99.90;;;;;;5046234;28;20202;-83
2023/01/08 03:44:20;;;;;;;3.40;0.98;;;24.40;99.90;;;;;;5053165;28;20194;-84
2023/01/08 03:46:57;;;;;;;3.95;0.80;;;24.30;99.90;;;;;;5049883;28;20308;-82
2023/01/08 03:49:30;;;;;;;6.32;1.10;;;24.40;99.90;;;;;;5031821;28;20272;-82
2023/01/08 03:52:01;;;;;;;9.55;1.40;;;24.50;99.90;;;;;;5033261;28;20190;-83
2023/01/08 03:54:35;;;;;;;3.63;1.00;;;24.50;99.90;;;;;;5050369;28;20636;-82
2023/01/08 03:57:06;;;;;;;3.35;0.80;;;24.40;99.90;;;;;;5052917;28;20281;-81
2023/01/08 03:59:39;;;;;;;4.57;1.00;;;24.30;99.90;;;;;;5046645;28;20308;-80
2023/01/08 04:02:10;;;;;;;4.97;0.93;;;24.20;99.90;;;;;;5038850;28;20192;-82
2023/01/08 04:04:43;;;;;;;4.40;0.95;;;24.30;99.90;;;;;;5048373;28;20251;-81
2023/01/08 04:07:14;;;;;;;3.40;0.63;;;24.10;99.90;;;;;;5035040;28;20555;-85
2023/01/08 04:09:45;;;;;;;4.10;0.90;;;24.20;99.90;;;;;;5053366;28;20284;-82
2023/01/08 04:12:16;;;;;;;6.90;0.85;;;24.10;99.90;;;;;;5053251;28;20198;-89
2023/01/08 04:14:49;;;;;;;4.55;0.85;;;24.00;99.90;;;;;;5053126;28;20293;-88
2023/01/08 04:17:20;;;;;;;2.67;1.15;;;24.00;99.90;;;;;;5053160;28;20280;-81
2023/01/08 04:19:50;;;;;;;3.75;0.80;;;24.10;99.90;;;;;;5052342;28;20303;-85
2023/01/08 04:22:21;;;;;;;3.05;0.77;;;24.10;99.90;;;;;;5053083;28;20281;-87
2023/01/08 04:24:52;;;;;;;4.07;0.85;;;24.10;99.90;;;;;;5052688;28;20188;-80
2023/01/08 04:27:23;;;;;;;3.40;0.80;;;24.10;99.90;;;;;;5041862;28;20220;-85
2023/01/08 04:29:55;;;;;;;6.70;1.15;;;24.10;99.90;;;;;;5031553;28;20204;-81
2023/01/08 04:32:26;;;;;;;5.00;0.90;;;24.10;99.90;;;;;;5030326;28;20270;-79
2023/01/08 04:34:57;;;;;;;3.80;0.90;;;23.90;99.90;;;;;;5032546;28;20198;-86
2023/01/08 04:37:28;;;;;;;3.67;0.82;;;24.00;99.90;;;;;;5033510;28;20281;-79
2023/01/08 04:39:59;;;;;;;5.95;1.10;;;24.00;99.90;;;;;;5045610;28;20343;-77
2023/01/08 04:42:29;;;;;;;4.30;0.80;;;24.00;99.90;;;;;;5038927;28;20201;-86
2023/01/08 04:45:02;;;;;;;4.13;0.80;;;24.00;99.90;;;;;;5034762;28;20224;-81
2023/01/08 04:47:33;;;;;;;3.70;0.90;;;24.00;99.90;;;;;;5029585;28;20684;-82
2023/01/08 04:50:03;;;;;;;4.15;0.88;;;24.10;99.90;;;;;;5049565;28;20317;-79
2023/01/08 04:52:34;;;;;;;3.45;0.88;;;24.00;99.90;;;;;;5043492;28;20204;-83
2023/01/08 04:55:06;;;;;;;5.43;0.90;;;24.00;99.90;;;;;;5036216;28;20629;-81
2023/01/08 04:57:37;;;;;;;3.35;0.80;;;24.00;99.90;;;;;;5046175;28;20286;-79
2023/01/08 05:00:11;;;;;;;4.72;0.98;;;24.00;99.90;;;;;;5040650;28;20557;-80
2023/01/08 05:02:41;;;;;;;3.97;0.65;;;24.00;99.90;;;;;;5037685;28;20277;-85
2023/01/08 05:05:12;;;;;;;4.45;0.80;;;24.00;99.90;;;;;;5055537;28;20285;-82
2023/01/08 05:07:43;;;;;;;3.05;0.85;;;24.00;99.90;;;;;;5056157;28;20281;-83
2023/01/08 05:10:14;;;;;;;3.65;0.90;;;24.00;99.90;;;;;;5036809;28;20198;-82
2023/01/08 05:12:46;;;;;;;3.13;0.82;;;24.00;99.90;;;;;;5050744;28;20233;-74
2023/01/08 05:15:19;;;;;;;3.47;0.77;;;24.00;99.90;;;;;;5055274;28;20280;-84
2023/01/08 05:17:50;;;;;;;5.90;1.10;;;23.90;99.90;;;;;;5055431;28;20582;-82
2023/01/08 05:20:22;;;;;;;4.80;0.80;;;23.80;99.90;;;;;;5043682;28;20301;-80
2023/01/08 05:22:53;;;;;;;6.38;0.85;;;23.60;99.90;;;;;;5050905;28;20197;-86
2023/01/08 05:25:24;;;;;;;4.63;0.90;;;23.60;99.90;;;;;;5052426;28;20196;-81
2023/01/08 05:27:55;;;;;;;4.40;0.80;;;23.60;99.90;;;;;;5045726;28;20199;-84
2023/01/08 05:30:28;;;;;;;4.35;0.73;;;23.70;99.90;;;;;;5050619;28;20284;-82
2023/01/08 05:32:58;;;;;;;2.63;0.60;;;23.60;99.90;;;;;;5033781;28;20216;-85
2023/01/08 05:35:29;;;;;;;3.45;0.65;;;23.60;99.90;;;;;;5055264;28;20198;-86
2023/01/08 05:38:07;;;;;;;5.40;0.95;;;23.60;99.90;;;;;;5044708;28;20281;-87
2023/01/08 05:40:40;;;;;;;3.45;0.55;;;23.50;99.90;;;;;;5048395;28;20217;-85
2023/01/08 05:43:11;;;;;;;3.38;0.70;;;23.50;99.90;;;;;;5036300;28;20221;-83
2023/01/08 05:45:43;;;;;;;4.00;1.00;;;23.60;99.90;;;;;;5044846;28;20197;-84
2023/01/08 05:48:14;;;;;;;3.58;0.75;;;23.60;99.90;;;;;;5047281;28;20316;-83
2023/01/08 05:50:45;;;;;;;5.28;1.08;;;23.60;99.90;;;;;;5049240;28;20292;-85
2023/01/08 05:53:19;;;;;;;6.85;1.00;;;23.50;99.90;;;;;;5038616;28;20195;-87
2023/01/08 05:55:50;;;;;;;5.72;1.13;;;23.30;99.90;;;;;;5049370;28;20623;-80
2023/01/08 05:58:20;;;;;;;3.20;0.95;;;23.10;99.90;;;;;;5035490;28;20197;-84
2023/01/08 06:00:53;;;;;;;3.17;0.82;;;23.10;99.90;;;;;;5044882;28;20214;-84
2023/01/08 06:03:24;;;;;;;3.97;0.85;;;23.20;99.90;;;;;;5052739;28;20217;-81
2023/01/08 06:05:59;;;;;;;2.88;0.70;;;23.30;99.90;;;;;;5048414;28;20204;-81
2023/01/08 06:08:30;;;;;;;2.17;0.70;;;23.30;99.90;;;;;;5038802;28;20255;-80
2023/01/08 06:11:06;;;;;;;6.47;0.85;;;23.30;99.90;;;;;;5028737;28;20205;-84
2023/01/08 06:13:38;;;;;;;2.88;0.80;;;23.20;99.90;;;;;;5052187;28;20262;-81
2023/01/08 06:16:11;;;;;;;6.13;1.20;;;23.20;99.90;;;;;;5041174;28;20601;-80
2023/01/08 06:18:42;;;;;;;4.72;0.85;;;23.20;99.90;;;;;;5049272;28;20675;-81
2023/01/08 06:21:13;;;;;;;5.70;0.90;;;23.00;99.90;;;;;;5042825;28;20300;-80
2023/01/08 06:23:44;;;;;;;5.13;1.05;;;22.90;99.90;;;;;;5052104;28;20657;-81
2023/01/08 06:26:15;;;;;;;4.47;0.95;;;22.90;99.90;;;;;;5050656;28;20284;-79
2023/01/08 06:28:45;;;;;;;5.30;1.10;;;22.90;99.90;;;;;;5052329;28;20273;-81
2023/01/08 06:31:18;;;;;;;4.78;0.90;;;23.00;99.90;;;;;;5051843;28;20280;-80
2023/01/08 06:33:49;;;;;;;4.18;0.88;;;23.10;99.90;;;;;;5048796;28;20288;-81
2023/01/08 06:36:26;;;;;;;4.72;0.75;;;23.10;99.90;;;;;;5042928;28;20201;-87
2023/01/08 06:38:56;;;;;;;6.45;1.15;;;23.10;99.90;;;;;;5039768;28;20302;-83
2023/01/08 06:41:27;;;;;;;3.80;1.17;;;23.00;99.90;;;;;;5037651;28;20320;-81
2023/01/08 06:43:58;;;;;;;2.97;0.80;;;23.00;99.90;;;;;;5050890;28;20196;-81
2023/01/08 06:46:37;;;;;;;2.63;0.70;;;22.90;99.90;;;;;;5045516;28;20208;-86
2023/01/08 06:49:07;;;;;;;3.53;0.77;;;23.00;99.90;;;;;;5051457;28;20233;-84
2023/01/08 06:51:38;;;;;;;1.70;0.70;;;22.90;99.90;;;;;;5033109;28;20252;-82
2023/01/08 06:54:09;;;;;;;5.05;0.63;;;22.80;99.90;;;;;;5041173;28;20565;-85
2023/01/08 06:56:40;;;;;;;4.55;0.60;;;22.80;99.90;;;;;;5044714;28;20204;-87
2023/01/08 06:59:11;;;;;;;4.80;1.02;;;22.80;99.90;;;;;;5042483;28;20198;-84
2023/01/08 07:01:44;;;;;;;2.38;0.57;;;22.80;99.90;;;;;;5038029;28;21138;-83
2023/01/08 07:04:14;;;;;;;4.95;1.00;;;22.70;99.90;;;;;;5037376;28;20207;-82
2023/01/08 07:06:45;;;;;;;1.90;0.68;;;22.70;99.90;;;;;;5046133;28;20204;-87
2023/01/08 07:09:17;;;;;;;4.65;0.75;;;22.70;99.90;;;;;;5049455;28;20649;-88
2023/01/08 07:11:48;;;;;;;3.97;0.80;;;22.60;99.90;;;;;;5050207;28;20247;-90
2023/01/08 07:14:18;;;;;;;4.85;0.82;;;22.70;99.90;;;;;;5044798;28;20280;-84
2023/01/08 07:16:51;;;;;;;3.88;0.90;;;22.70;99.90;;;;;;5053882;28;20193;-85
2023/01/08 07:19:22;;;;;;;3.40;0.90;;;22.60;99.90;;;;;;5053950;28;20189;-86
2023/01/08 07:21:52;;;;;;;3.15;0.80;;;22.50;99.90;;;;;;5053596;28;20220;-85
2023/01/08 07:24:23;;;;;;;3.17;0.80;;;22.50;99.90;;;;;;5053531;28;20293;-82
2023/01/08 07:26:54;;;;;;;2.40;0.70;;;22.50;99.90;;;;;;5053673;28;20198;-83
2023/01/08 07:29:26;;;;;;;3.03;0.70;;;22.50;99.90;;;;;;5053215;28;20276;-87
2023/01/08 07:31:58;;;;;;;4.63;0.90;;;22.50;99.90;;;;;;5048783;28;20231;-81
2023/01/08 07:34:29;;;;;;;4.75;0.80;;;22.40;99.90;;;;;;5044980;28;20280;-86
2023/01/08 07:37:00;;;;;;;3.20;0.80;;;22.40;99.90;;;;;;5052199;28;20198;-87
2023/01/08 07:39:30;;;;;;;4.53;1.02;;;22.40;99.90;;;;;;5053392;28;20229;-81
2023/01/08 07:42:01;;;;;;;3.20;0.82;;;22.40;99.90;;;;;;5048759;28;20242;-89
2023/01/08 07:44:32;;;;;;;5.57;0.95;;;22.30;99.90;;;;;;5047497;28;20199;-90
2023/01/08 07:47:05;;;;;;;2.97;0.80;;;22.30;99.90;;;;;;5035879;28;20281;-88
2023/01/08 07:49:35;;;;;;;2.15;0.60;;;22.30;99.90;;;;;;5049946;28;20313;-81
2023/01/08 07:52:06;;;;;;;5.95;0.90;;;22.30;99.90;;;;;;5050542;28;20284;-85
2023/01/08 07:54:37;;;;;;;7.60;0.80;;;22.30;99.90;;;;;;5052892;28;20189;-85
2023/01/08 07:57:08;;;;;;;2.55;0.88;;;22.30;99.90;;;;;;5049890;28;20193;-88
2023/01/08 07:59:39;;;;;;;4.47;1.00;;;22.30;99.90;;;;;;5051882;28;20280;-88
2023/01/08 08:02:13;;;;;;;3.97;0.90;;;22.30;99.90;;;;;;5045857;28;20235;-87
2023/01/08 08:04:44;;;;;;;4.25;0.88;;;22.40;99.90;;;;;;5047868;28;20241;-90
2023/01/08 08:07:15;;;;;;;2.30;0.70;;;22.30;99.90;;;;;;5051176;28;20251;-90
2023/01/08 08:09:46;;;;;;;3.10;0.70;;;22.30;99.90;;;;;;5048532;28;20229;-90
2023/01/08 08:12:16;;;;;;;4.60;1.00;;;22.40;99.90;;;;;;5052249;28;20292;-89
2023/01/08 08:14:47;;;;;;;6.07;1.10;;;22.40;99.90;;;;;;5047914;28;20288;-85
2023/01/08 08:17:20;;;;;;;4.93;0.90;;;22.50;99.90;;;;;;5050698;28;20234;-89
2023/01/08 08:19:51;;;;;;;3.63;0.88;;;22.40;99.90;;;;;;5051420;28;20272;-87
2023/01/08 08:22:21;;;;;;;3.88;0.77;;;22.30;99.90;;;;;;5050253;28;20220;-88
2023/01/08 08:24:52;;;;;;;4.18;0.80;;;22.30;99.90;;;;;;5052298;28;20197;-90
2023/01/08 08:27:23;;;;;;;1.67;0.80;;;22.20;99.90;;;;;;5054971;28;20364;-87
2023/01/08 08:29:54;;;;;;;2.00;0.73;;;22.20;99.90;;;;;;5054708;28;20193;-87
2023/01/08 08:32:27;;;;;;;2.88;0.60;;;22.10;99.90;;;;;;5053234;28;20280;-88
2023/01/08 08:34:57;;;;;;;2.13;0.68;;;22.10;99.90;;;;;;5052912;28;20240;-90
2023/01/08 08:37:28;;;;;;;3.70;0.80;;;22.00;99.90;;;;;;5055592;28;20198;-90
2023/01/08 08:39:59;;;;;;;2.50;0.75;;;21.90;99.90;;;;;;5053204;28;20302;-89
2023/01/08 08:42:30;;;;;;;2.45;0.80;;;21.80;99.90;;;;;;5056350;28;20751;-88
2023/01/08 08:45:01;;;;;;;4.40;0.90;;;21.70;99.90;;;;;;5054253;28;20546;-87
2023/01/08 08:47:33;;;;;;;3.15;0.90;;;21.60;99.90;;;;;;5047531;28;20620;-87
2023/01/08 08:50:04;;;;;;;1.80;0.63;;;21.60;99.90;;;;;;5045403;28;20233;-88
2023/01/08 08:52:36;;;;;;;5.45;0.80;;;21.50;99.90;;;;;;5056541;28;20281;-90
2023/01/08 08:55:07;;;;;;;2.70;0.88;;;21.50;99.90;;;;;;5048442;28;20289;-89
2023/01/08 08:57:38;;;;;;;2.28;1.00;;;21.40;99.90;;;;;;5054719;28;20252;-90
2023/01/08 09:00:10;;;;;;;4.65;1.10;;;21.30;99.90;;;;;;5053901;28;20194;-87
2023/01/08 09:02:43;;;;;;;3.92;0.88;;;21.30;99.90;;;;;;5055886;28;20700;-87
2023/01/08 09:05:14;;;;;;;5.18;0.98;;;21.20;99.90;;;;;;5055060;28;20748;-90
2023/01/08 09:07:44;;;;;;;2.13;0.80;;;21.10;99.90;;;;;;5040394;28;20574;-89
2023/01/08 09:10:15;;;;;;;3.83;0.90;;;21.10;99.90;;;;;;5038456;28;20285;-87
2023/01/08 09:12:46;;;;;;;5.38;1.02;;;21.10;99.90;;;;;;5049895;28;20284;-90
2023/01/08 09:15:17;;;;;;;2.95;1.20;;;21.00;99.90;;;;;;5053415;28;20284;-87
2023/01/08 09:17:55;;;;;;;2.85;0.75;;;21.00;99.90;;;;;;5056443;28;20197;-89
2023/01/08 09:20:27;;;;;;;3.83;0.88;;;20.90;99.90;;;;;;5047726;28;20208;-90
2023/01/08 09:23:01;;;;;;;4.85;0.80;;;20.90;99.90;;;;;;5037855;28;20253;-88
2023/01/08 09:25:32;;;;;;;2.08;0.80;;;20.90;99.90;;;;;;5046288;28;20616;-86
2023/01/08 09:28:04;;;;;;;3.80;0.70;;;20.80;99.90;;;;;;5042200;28;20203;-89
2023/01/08 09:30:35;;;;;;;3.80;0.85;;;20.80;99.90;;;;;;5050881;28;20300;-90
2023/01/08 09:33:08;;;;;;;4.20;1.10;;;20.80;99.90;;;;;;5053621;28;20289;-88
2023/01/08 09:35:39;;;;;;;2.67;1.05;;;20.70;99.90;;;;;;5055198;28;20198;-89
2023/01/08 09:38:10;;;;;;;3.72;1.02;;;20.70;99.90;;;;;;5052521;28;20202;-89
2023/01/08 09:40:44;;;;;;;2.08;0.82;;;20.70;99.90;;;;;;5041994;28;20225;-89
2023/01/08 09:43:21;;;;;;;2.40;0.90;;;20.70;99.90;;;;;;5052142;28;20305;-89
2023/01/08 09:45:57;;;;;;;4.90;0.98;;;20.60;99.90;;;;;;5046864;28;20201;-90
2023/01/08 09:48:32;;;;;;;2.72;0.90;;;20.60;99.90;;;;;;5042653;28;20308;-88
2023/01/08 09:51:03;;;;;;;2.70;0.98;;;20.60;99.90;;;;;;5043731;28;20648;-88
2023/01/08 09:53:35;;;;;;;1.75;0.80;;;20.50;99.90;;;;;;5054734;28;20285;-89
2023/01/08 09:56:12;;;;;;;2.08;0.80;;;20.50;99.90;;;;;;5035573;28;20277;-89
2023/01/08 09:58:47;;;;;;;4.57;0.90;;;20.50;99.90;;;;;;5049824;28;20229;-91
2023/01/08 10:01:21;;;;;;;3.88;0.80;;;20.50;99.90;;;;;;5055052;28;20200;-88
2023/01/08 10:03:58;;;;;;;1.75;0.70;;;20.50;99.90;;;;;;5053122;28;20241;-88
2023/01/08 10:06:30;;;;;;;4.57;1.30;;;20.40;99.90;;;;;;5050018;28;20248;-88
2023/01/08 10:09:01;;;;;;;3.65;1.00;;;20.40;99.90;;;;;;5048792;28;20209;-87
2023/01/08 10:11:42;;;;;;;4.68;2.03;;;20.40;99.90;;;;;;5050423;28;20197;-89
2023/01/08 10:14:22;;;;;;;4.07;1.80;;;20.30;99.90;;;;;;5050879;28;20189;-88
2023/01/08 10:16:57;;;;;;;5.85;1.42;;;20.30;99.90;;;;;;5050752;28;20284;-89
2023/01/08 10:19:30;;;;;;;2.03;0.90;;;20.20;99.90;;;;;;5054870;28;20279;-89
2023/01/08 10:22:01;;;;;;;2.75;1.10;;;20.20;99.90;;;;;;5042818;28;20279;-85
2023/01/08 10:24:36;;;;;;;3.35;1.50;;;20.20;99.90;;;;;;5049524;28;20194;-88
2023/01/08 10:27:13;;;;;;;4.68;1.42;;;20.20;99.90;;;;;;5038516;28;20275;-87
2023/01/08 10:29:44;;;;;;;3.00;1.45;;;20.10;99.90;;;;;;5054823;28;20284;-87
2023/01/08 10:32:19;;;;;;;2.95;1.23;;;20.10;99.90;;;;;;5053369;28;20296;-88
2023/01/08 10:34:54;;;;;;;2.67;1.17;;;20.10;99.90;;;;;;5041840;28;20208;-88
2023/01/08 10:37:30;;;;;;;2.92;1.20;;;20.10;99.90;;;;;;5048386;28;20277;-88
2023/01/08 10:40:07;;;;;;;3.67;1.00;;;20.10;99.90;;;;;;5045009;28;20696;-87
2023/01/08 10:42:39;;;;;;;3.30;1.20;;;20.10;99.90;;;;;;5048473;28;20256;-87
2023/01/08 10:45:20;;;;;;;4.72;1.85;;;20.00;99.90;;;;;;5053770;28;20206;-86
2023/01/08 10:47:57;;;;;;;5.80;2.08;;;19.90;99.90;;;;;;5051451;28;20209;-88
2023/01/08 10:50:32;;;;;;;3.15;1.60;;;19.90;99.90;;;;;;5050271;28;20284;-87
2023/01/08 10:53:03;;;;;;;2.10;1.30;;;19.90;99.90;;;;;;5046650;28;20198;-85
2023/01/08 10:55:39;;;;;;;3.38;1.20;;;19.90;99.90;;;;;;5047627;28;20284;-88
2023/01/08 10:58:17;;;;;;;3.75;1.15;;;19.90;99.90;;;;;;5034162;28;20202;-87
2023/01/08 11:00:47;;;;;;;3.92;1.25;;;19.80;99.90;;;;;;5052057;28;20694;-87
2023/01/08 11:03:27;;;;;;;3.70;1.35;;;19.80;99.90;;;;;;5053886;28;20706;-89
2023/01/08 11:06:00;;;;;;;2.65;1.10;;;19.80;99.90;;;;;;5051174;28;20197;-89
2023/01/08 11:08:31;;;;;;;3.53;1.10;;;19.80;99.90;;;;;;5050506;28;20289;-87
2023/01/08 11:11:03;;;;;;;4.88;1.45;;;19.80;99.90;;;;;;5034137;28;20289;-89
2023/01/08 11:13:34;;;;;;;3.30;1.10;;;19.70;99.90;;;;;;5049315;28;20281;-88
2023/01/08 11:16:07;;;;;;;3.53;1.45;;;19.70;99.90;;;;;;5043952;28;20683;-88
2023/01/08 11:18:46;;;;;;;5.95;1.60;;;19.60;99.90;;;;;;5044621;28;20285;-87
2023/01/08 11:21:25;;;;;;;4.03;1.00;;;19.60;99.90;;;;;;5041883;28;20199;-88
2023/01/08 11:24:22;;;;;;;3.70;1.23;;;19.60;99.90;;;;;;5051323;28;20213;-88
2023/01/08 11:26:56;;;;;;;2.78;1.40;;;19.50;99.90;;;;;;5042294;28;20229;-87
2023/01/08 11:29:32;;;;;;;3.78;1.33;;;19.50;99.90;;;;;;5037495;28;20216;-86
2023/01/08 11:32:13;;;;;;;4.10;1.00;;;19.50;99.90;;;;;;5050553;28;20201;-82
2023/01/08 11:34:53;;;;;;;2.75;1.05;;;19.40;99.90;;;;;;5049978;28;20215;-84
2023/01/08 11:37:28;;;;;;;1.35;0.80;;;19.40;99.90;;;;;;5046308;28;20197;-80
2023/01/08 11:39:59;;;;;;;3.70;1.20;;;19.40;99.90;;;;;;5044175;28;20316;-87
2023/01/08 11:42:50;;;;;;;2.45;0.75;;;19.40;99.90;;;;;;5049314;28;20239;-89
2023/01/08 11:45:29;;;;;;;4.43;1.10;;;19.40;99.90;;;;;;5048486;28;20197;-84
2023/01/08 11:48:36;;;;;;;3.25;1.00;;;19.40;99.90;;;;;;5049077;28;20276;-84
2023/01/08 11:51:39;;;;;;;3.00;1.25;;;19.40;99.90;;;;;;5050621;28;20201;-84
2023/01/08 11:54:28;;;;;;;2.65;1.00;;;19.40;99.90;;;;;;5045499;28;20308;-83
2023/01/08 11:57:14;;;;;;;4.20;1.13;;;19.30;99.90;;;;;;5050360;28;20280;-79
2023/01/08 11:59:59;;;;;;;3.70;1.10;;;19.30;99.90;;;;;;5051419;28;20280;-79
2023/01/08 12:02:44;;;;;;;2.50;1.00;;;19.30;99.90;;;;;;5050862;28;20220;-83
2023/01/08 12:05:27;;;;;;;1.90;0.90;;;19.30;99.90;;;;;;5040227;28;20197;-83
2023/01/08 12:08:04;;;;;;;5.43;1.10;;;19.30;99.90;;;;;;5051670;28;20229;-84
2023/01/08 12:10:47;;;;;;;5.88;1.23;;;19.30;99.90;;;;;;5051355;28;20537;-84
2023/01/08 12:13:34;;;;;;;2.42;1.20;;;19.30;99.90;;;;;;5049925;28;20280;-83
2023/01/08 12:16:13;;;;;;;2.97;1.10;;;19.40;99.90;;;;;;5052259;28;20251;-86
2023/01/08 12:19:06;;;;;;;4.15;1.20;;;19.40;99.90;;;;;;5052833;28;20205;-81
2023/01/08 12:21:44;;;;;;;3.75;1.10;;;19.40;99.90;;;;;;5033318;28;20270;-85
2023/01/08 12:24:36;;;;;;;3.05;1.33;;;19.40;99.90;;;;;;5033411;28;20645;-87
2023/01/08 12:27:18;;;;;;;3.75;1.13;;;19.40;99.90;;;;;;5036038;28;20254;-85
2023/01/08 12:30:05;;;;;;;5.88;1.40;;;19.30;99.90;;;;;;5052936;28;20186;-81
2023/01/08 12:32:38;;;;;;;3.33;1.30;;;19.30;99.90;;;;;;5039766;28;20248;-81
2023/01/08 12:35:15;;;;;;;4.10;1.17;;;19.30;99.90;;;;;;5042903;28;20207;-90
2023/01/08 12:37:50;;;;;;;3.28;1.40;;;19.30;99.90;;;;;;5050919;28;20617;-88
2023/01/08 12:40:26;;;;;;;5.55;1.23;;;19.30;99.90;;;;;;5047742;28;20263;-81
2023/01/08 12:43:02;;;;;;;3.95;1.45;;;19.20;99.90;;;;;;5052707;28;20213;-87
2023/01/08 12:45:38;;;;;;;6.75;1.48;;;19.20;99.90;;;;;;5052628;28;20181;-86
2023/01/08 12:48:13;;;;;;;3.95;1.42;;;19.20;99.90;;;;;;5052057;28;20280;-85
2023/01/08 12:50:53;;;;;;;3.05;1.33;;;19.20;99.90;;;;;;5052915;28;20715;-89
2023/01/08 12:53:32;;;;;;;3.70;1.60;;;19.20;99.90;;;;;;5052668;28;20635;-89
2023/01/08 12:56:10;;;;;;;2.80;1.25;;;19.20;99.90;;;;;;5052963;28;20285;-87
2023/01/08 12:59:03;;;;;;;3.22;1.40;;;19.10;99.90;;;;;;5052561;28;20198;-90
2023/01/08 13:01:43;;;;;;;5.10;1.50;;;19.10;99.90;;;;;;5050439;28;20204;-85
2023/01/08 13:04:15;;;;;;;5.50;1.58;;;19.00;99.90;;;;;;5052921;28;20308;-84
2023/01/08 13:07:02;;;;;;;3.75;1.50;;;19.10;99.90;;;;;;5052658;28;20645;-85
2023/01/08 13:09:34;;;;;;;3.92;1.40;;;19.00;99.90;;;;;;5052648;28;20273;-86
2023/01/08 13:12:05;;;;;;;2.63;1.42;;;18.90;99.90;;;;;;5055317;28;20190;-82
2023/01/08 13:14:48;;;;;;;5.90;1.60;;;18.90;99.90;;;;;;5056292;28;20190;-86
2023/01/08 13:17:23;;;;;;;3.72;1.33;;;18.90;99.90;;;;;;5056028;28;20197;-88
2023/01/08 13:19:56;;;;;;;2.08;1.30;;;18.90;99.90;;;;;;5056189;28;20193;-90
2023/01/08 13:22:29;;;;;;;4.25;1.40;;;18.80;99.90;;;;;;5056196;28;20324;-87